Latest Weather Observations for Portland Airport

IDV60801

Issued at 6:32 am EST Saturday 24 June 2017 (issued every 30 minutes, with the page automatically refreshed every 10 minutes)

About weather observations | Map of weather stations | Latest weather observations for VIC | Other Formats
Station Details ID: 090171 Name: CASHMORE AIRPORT Lat: -38.31 Lon: 141.47 Height: 80.9 m
Data from the previous 72 hours. | See also: Recent months at Portland Airport
Date/Time
EST
Temp
°C
App
Temp
°C
Dew
Point
°C
Rel
Hum
%
Delta-T
°C
Wind Press
QNH
hPa
Press
MSL
hPa
Rain since
9am
mm
Dir  Spd
km/h
Gust
km/h
Spd
kts
Gust
kts
24/06:30am 5.2 1.7 1.0 74 1.6 WSW 9 13 5 7 1018.1 1018.2 2.6
24/06:00am 6.0 2.2 1.5 73 1.8 WSW 11 13 6 7 1017.8 1017.9 2.6
24/05:30am 6.5 2.7 1.8 72 1.9 SW 11 13 6 7 1017.7 1017.8 2.6
24/05:00am 7.2 3.5 2.1 70 2.1 SW 11 15 6 8 1017.5 1017.6 2.6
24/04:30am 7.3 3.5 2.0 69 2.2 SW 11 17 6 9 1017.3 1017.4 2.6
24/04:00am 7.9 3.9 2.6 69 2.2 SW 13 19 7 10 1017.4 1017.5 2.6
24/03:30am 8.2 4.2 2.7 68 2.3 SW 13 19 7 10 1017.2 1017.3 2.6
24/03:00am 8.7 4.3 2.5 65 2.6 SW 15 20 8 11 1017.2 1017.3 2.6
24/02:30am 9.0 4.7 3.2 67 2.5 SW 15 22 8 12 1017.2 1017.3 2.6
24/02:00am 9.1 4.8 3.5 68 2.4 SW 15 28 8 15 1017.2 1017.3 2.6
24/01:30am 9.0 4.3 3.2 67 2.5 SW 17 28 9 15 1017.0 1017.1 2.6
24/01:00am 9.5 5.4 4.3 70 2.3 SW 15 22 8 12 1017.0 1017.1 2.6
24/12:30am 9.7 5.3 4.5 70 2.3 SW 17 30 9 16 1017.1 1017.2 2.6
24/12:00am 9.9 5.6 5.1 72 2.2 SSW 17 24 9 13 1017.1 1017.2 2.6
 
Date/Time
EST
Temp
°C
App
Temp
°C
Dew
Point
°C
Rel
Hum
%
Delta-T
°C
Wind Press
QNH
hPa
Press
MSL
hPa
Rain since
9am
mm
Dir  Spd
km/h
Gust
km/h
Spd
kts
Gust
kts
23/11:30pm 9.9 6.1 5.7 75 1.9 SSW 15 26 8 14 1017.0 1017.1 2.6
23/11:00pm 9.7 5.2 6.2 79 1.6 SSW 19 32 10 17 1016.8 1016.9 2.6
23/10:30pm 9.8 5.4 6.7 81 1.5 SSW 19 30 10 16 1016.7 1016.8 2.6
23/10:00pm 10.0 5.8 7.4 84 1.2 SSW 19 30 10 16 1016.5 1016.6 2.6
23/09:50pm 9.9 5.7 7.5 85 1.1 SW 19 28 10 15 1016.3 1016.4 2.4
23/09:30pm 10.2 6.5 8.0 86 1.1 SSW 17 28 9 15 1016.2 1016.3 2.4
23/09:03pm 10.3 6.2 7.9 85 1.2 SSW 19 30 10 16 1015.9 1016.0 2.4
23/09:00pm 10.4 6.7 8.0 85 1.2 SSW 17 28 9 15 1015.8 1015.9 2.4
23/08:30pm 10.6 6.5 8.0 84 1.3 SW 19 28 10 15 1015.5 1015.6 2.4
23/08:00pm 11.4 8.1 7.9 79 1.7 SW 15 22 8 12 1015.1 1015.2 2.4
23/07:30pm 11.5 7.2 7.8 78 1.8 WSW 20 30 11 16 1014.8 1014.9 2.4
23/07:00pm 11.2 6.3 8.4 83 1.4 WSW 24 33 13 18 1014.3 1014.4 2.4
23/06:30pm 11.7 8.5 10.1 90 0.8 W 17 26 9 14 1014.0 1014.1 2.4
23/06:07pm 11.1 7.2 9.4 89 0.9 W 20 28 11 15 1013.9 1014.0 2.4
23/06:00pm 11.1 6.4 9.4 89 0.9 WSW 24 35 13 19 1013.8 1013.9 2.4
23/05:30pm 11.4 7.7 9.3 87 1.1 WSW 19 30 10 16 1013.7 1013.8 1.8
23/05:20pm 11.3 7.3 9.0 86 1.1 WSW 20 32 11 17 1013.8 1013.9 1.6
23/05:02pm 11.7 6.0 8.2 79 1.7 SW 28 41 15 22 1013.7 1013.8 1.2
23/05:00pm 11.8 5.7 8.1 78 1.8 SW 30 43 16 23 1013.7 1013.8 0.8
23/04:30pm 13.9 7.9 7.2 64 3.3 W 28 39 15 21 1013.2 1013.2 0.6
23/04:00pm 14.1 7.5 6.2 59 3.8 W 30 43 16 23 1013.2 1013.2 0.6
23/03:49pm 14.3 8.0 5.9 57 4.0 W 28 46 15 25 1013.1 1013.1 0.6
23/03:30pm 14.6 8.0 5.9 56 4.2 W 30 41 16 22 1013.1 1013.1 0.6
23/03:00pm 14.5 7.6 6.3 58 4.0 W 32 41 17 22 1013.1 1013.1 0.6
23/02:33pm 14.4 8.4 7.2 62 3.5 W 28 48 15 26 1013.0 1013.0 0.6
23/02:30pm 14.5 8.6 7.5 63 3.5 W 28 43 15 23 1013.0 1013.0 0.6
23/02:00pm 14.0 8.5 7.5 65 3.2 W 26 37 14 20 1013.2 1013.2 0.6
23/01:30pm 13.3 8.3 9.5 78 1.9 NW 26 37 14 20 1013.4 1013.4 0.6
23/01:00pm 13.5 8.2 9.7 78 2.0 NW 28 35 15 19 1013.6 1013.7 0.6
23/12:30pm 13.3 9.5 9.9 80 1.8 NW 20 32 11 17 1013.9 1014.0 0.6
23/12:00pm 11.8 7.8 9.2 84 1.3 NNW 20 30 11 16 1014.3 1014.4 0.6
23/11:30am 10.2 6.1 8.0 86 1.1 NNW 19 24 10 13 1014.9 1015.0 0.6
23/11:00am 10.2 6.0 7.3 82 1.4 NW 19 32 10 17 1015.4 1015.5 0.2
23/10:30am 9.7 5.3 6.4 80 1.5 NNW 19 26 10 14 1015.3 1015.4 0.0
23/10:00am 10.1 6.2 7.2 82 1.4 NW 17 24 9 13 1015.4 1015.5 0.0
23/09:30am 9.2 4.6 6.5 83 1.3 NNW 20 30 11 16 1015.5 1015.6 0.0
23/09:00am 8.3 4.1 5.6 83 1.2 NNW 17 20 9 11 1015.6 1015.7 0.0
23/08:30am 7.5 3.1 4.6 82 1.3 NNW 17 22 9 12 1015.6 1015.7 0.0
23/08:00am 7.1 2.6 4.1 81 1.3 NNW 17 22 9 12 1015.5 1015.6 0.0
23/07:30am 7.3 2.4 4.3 81 1.3 NNW 19 24 10 13 1015.7 1015.8 0.0
23/07:00am 8.0 3.2 4.6 79 1.5 NNW 19 28 10 15 1015.9 1016.0 0.0
23/06:30am 8.1 3.3 4.7 79 1.5 NNW 19 28 10 15 1016.0 1016.1 0.0
23/06:00am 8.4 3.5 5.2 80 1.4 NNW 20 30 11 16 1016.0 1016.1 0.0
23/05:30am 8.2 3.9 5.3 82 1.3 NNW 17 24 9 13 1016.2 1016.3 0.0
23/05:00am 8.2 3.5 5.3 82 1.3 NNW 19 28 10 15 1016.3 1016.4 0.0
23/04:30am 8.4 3.6 5.5 82 1.3 NNW 20 28 11 15 1016.6 1016.7 0.0
23/04:00am 8.4 3.6 5.7 83 1.2 NNW 20 32 11 17 1016.8 1016.9 0.0
23/03:30am 8.1 3.9 5.7 85 1.1 N 17 24 9 13 1017.2 1017.3 0.0
23/03:00am 7.5 4.0 5.5 87 0.9 N 13 19 7 10 1017.8 1017.9 0.0
23/02:30am 7.0 3.5 5.3 89 0.8 N 13 17 7 9 1018.0 1018.1 0.0
23/02:00am 6.7 3.1 5.2 90 0.7 N 13 19 7 10 1018.3 1018.4 0.0
23/01:30am 5.7 3.1 4.2 90 0.6 NNW 7 11 4 6 1018.6 1018.7 0.0
23/01:00am 6.7 3.9 5.0 89 0.7 NNW 9 11 5 6 1019.0 1019.1 0.0
23/12:30am 7.8 4.5 6.3 90 0.7 N 13 17 7 9 1019.1 1019.2 0.0
23/12:00am 8.3 5.5 6.8 90 0.7 N 11 17 6 9 1019.8 1019.9 0.0
 
Date/Time
EST
Temp
°C
App
Temp
°C
Dew
Point
°C
Rel
Hum
%
Delta-T
°C
Wind Press
QNH
hPa
Press
MSL
hPa
Rain since
9am
mm
Dir  Spd
km/h
Gust
km/h
Spd
kts
Gust
kts
22/11:30pm 8.3 5.1 6.9 91 0.7 N 13 15 7 8 1020.2 1020.3 0.0
22/11:00pm 7.9 4.6 6.4 90 0.7 NNW 13 15 7 8 1020.4 1020.5 0.0
22/10:30pm 7.9 5.0 6.4 90 0.7 N 11 15 6 8 1020.8 1020.9 0.0
22/10:00pm 8.2 5.3 6.5 89 0.8 N 11 13 6 7 1021.0 1021.1 0.0
22/09:30pm 8.1 5.5 6.2 88 0.9 N 9 11 5 6 1021.5 1021.6 0.0
22/09:00pm 8.7 6.3 6.8 88 0.9 N 9 11 5 6 1021.7 1021.8 0.0
22/08:30pm 9.3 6.6 7.4 88 0.9 NNW 11 13 6 7 1021.8 1021.9 0.0
22/08:00pm 8.9 6.1 6.9 87 0.9 N 11 13 6 7 1021.8 1021.9 0.0
22/07:30pm 9.2 6.8 7.2 87 0.9 NNW 9 11 5 6 1021.9 1022.0 0.0
22/07:00pm 9.6 7.3 7.4 86 1.0 N 9 11 5 6 1021.9 1022.0 0.0
22/06:30pm 10.0 7.4 7.6 85 1.2 N 11 13 6 7 1022.0 1022.1 0.0
22/06:00pm 10.5 8.3 7.7 83 1.3 N 9 11 5 6 1022.2 1022.3 0.0
22/05:30pm 11.4 9.3 8.3 81 1.5 N 9 11 5 6 1022.2 1022.3 0.0
22/05:00pm 12.0 9.9 8.3 78 1.8 N 9 13 5 7 1022.1 1022.2 0.0
22/04:30pm 13.4 11.1 9.1 75 2.2 NNW 11 15 6 8 1022.2 1022.3 0.0
22/04:00pm 13.8 10.3 8.6 71 2.6 NNW 17 24 9 13 1022.1 1022.2 0.0
22/03:30pm 14.4 10.9 8.8 69 2.8 NNW 17 28 9 15 1022.0 1022.1 0.0
22/03:00pm 14.6 11.0 8.5 67 3.1 NNW 17 24 9 13 1022.5 1022.6 0.0
22/02:30pm 14.7 11.1 8.4 66 3.2 NNW 17 24 9 13 1022.9 1023.0 0.0
22/02:00pm 14.3 10.7 8.3 67 3.0 NNW 17 24 9 13 1023.4 1023.5 0.0
22/01:30pm 14.8 11.5 9.6 71 2.7 NNW 17 22 9 12 1023.8 1024.0 0.0
22/01:00pm 14.5 12.2 10.3 76 2.2 NNW 13 20 7 11 1024.3 1024.5 0.0
22/12:30pm 13.7 11.7 10.3 80 1.8 NW 11 15 6 8 1024.8 1025.0 0.0
22/12:00pm 13.5 12.6 10.7 83 1.5 NW 6 9 3 5 1025.6 1025.7 0.0
22/11:30am 12.5 10.5 10.2 86 1.2 NNW 11 15 6 8 1026.1 1026.2 0.0
22/11:00am 11.0 8.7 8.9 87 1.0 N 11 19 6 10 1026.4 1026.5 0.0
22/10:30am 10.9 8.3 9.2 89 0.9 N 13 19 7 10 1026.7 1026.8 0.0
22/10:00am 9.8 7.7 8.2 90 0.8 N 9 13 5 7 1026.7 1026.8 0.0
22/09:30am 9.2 6.6 7.6 90 0.8 N 11 15 6 8 1026.6 1026.7 0.0
22/09:00am 8.5 5.7 7.0 90 0.7 N 11 15 6 8 1026.7 1026.8 0.0
22/08:30am 7.8 5.2 6.1 89 0.8 N 9 13 5 7 1026.8 1026.9 0.0
22/08:00am 7.4 5.1 5.5 88 0.8 N 7 9 4 5 1026.8 1026.9 0.0
22/07:30am 8.3 5.7 6.3 87 0.9 NNE 9 11 5 6 1026.5 1026.6 0.0
22/07:00am 8.8 6.9 6.8 87 0.9 N 6 7 3 4 1026.7 1026.8 0.0
22/06:30am 8.7 7.9 6.5 86 1.0 CALM 0 0 0 0 1026.7 1026.8 0.0
22/06:00am 9.0 7.1 6.6 85 1.1 N 6 9 3 5 1026.6 1026.7 0.0
22/05:30am 9.2 8.5 6.8 85 1.1 CALM 0 0 0 0 1026.6 1026.7 0.0
22/05:00am 9.1 7.2 6.7 85 1.1 N 6 9 3 5 1026.7 1026.8 0.0
22/04:30am 9.1 7.1 7.1 87 0.9 N 7 9 4 5 1026.6 1026.7 0.0
22/04:00am 8.8 8.1 6.9 88 0.9 CALM 0 0 0 0 1026.9 1027.0 0.0
22/03:30am 8.6 7.8 6.7 88 0.9 CALM 0 0 0 0 1027.0 1027.1 0.0
22/03:00am 8.5 6.9 6.5 87 0.9 NNE 4 6 2 3 1027.2 1027.3 0.0
22/02:30am 8.2 7.3 6.2 87 0.9 CALM 0 0 0 0 1027.2 1027.3 0.0
22/02:00am 8.5 6.4 6.5 87 0.9 NNE 7 11 4 6 1027.2 1027.3 0.0
22/01:30am 8.3 5.7 6.3 87 0.9 N 9 9 5 5 1027.5 1027.6 0.0
22/01:00am 8.4 6.2 6.4 87 0.9 NNE 7 7 4 4 1027.6 1027.7 0.0
22/12:30am 8.4 7.6 6.4 87 0.9 CALM 0 7 0 4 1028.1 1028.2 0.0
22/12:00am 8.2 7.3 6.2 87 0.9 CALM 0 0 0 0 1028.3 1028.4 0.0
 
Date/Time
EST
Temp
°C
App
Temp
°C
Dew
Point
°C
Rel
Hum
%
Delta-T
°C
Wind Press
QNH
hPa
Press
MSL
hPa
Rain since
9am
mm
Dir  Spd
km/h
Gust
km/h
Spd
kts
Gust
kts
21/11:30pm 8.3 7.4 6.1 86 1.0 CALM 0 0 0 0 1028.4 1028.5 0.0
21/11:00pm 8.4 6.2 6.2 86 1.0 N 7 9 4 5 1028.5 1028.6 0.0
21/10:30pm 8.5 6.5 6.1 85 1.1 N 6 7 3 4 1028.8 1028.9 0.0
21/10:00pm 8.8 8.0 6.3 84 1.1 CALM 0 0 0 0 1029.0 1029.1 0.0
21/09:30pm 8.9 7.6 6.2 83 1.2 N 2 7 1 4 1029.1 1029.2 0.0
21/09:00pm 9.4 6.9 6.7 83 1.3 N 9 9 5 5 1029.2 1029.3 0.0
21/08:35pm 9.4 7.5 6.8 84 1.2 N 6 7 3 4 1029.3 1029.4 0.0
21/08:30pm 9.4 7.5 6.8 84 1.2 N 6 7 3 4 1029.3 1029.4 0.0
21/08:16pm 9.3 8.5 6.7 84 1.2 CALM 0 0 0 0 1029.2 1029.3 0.0
21/08:00pm 9.4 8.7 6.8 84 1.2 CALM 0 0 0 0 1029.2 1029.3 0.0
21/07:30pm 9.6 8.9 6.9 83 1.3 CALM 0 0 0 0 1029.1 1029.2 0.0
21/07:00pm 9.9 9.1 6.6 80 1.5 CALM 0 0 0 0 1028.8 1028.9 0.0
21/06:30pm 10.3 9.5 6.5 77 1.8 CALM 0 6 0 3 1028.6 1028.7 0.0
21/06:00pm 10.3 9.0 6.1 75 1.9 E 2 7 1 4 1028.5 1028.6 0.0
21/05:30pm 10.8 9.9 6.2 73 2.2 CALM 0 0 0 0 1028.6 1028.7 0.0
21/05:00pm 11.5 10.7 6.4 71 2.4 CALM 0 0 0 0 1028.4 1028.5 0.0
21/04:30pm 11.9 10.9 5.5 65 3.0 CALM 0 0 0 0 1028.4 1028.5 0.0
21/04:00pm 12.2 11.1 5.1 62 3.3 CALM 0 0 0 0 1028.4 1028.5 0.0
21/03:30pm 12.2 11.1 4.9 61 3.4 CALM 0 0 0 0 1028.3 1028.4 0.0
21/03:00pm 12.4 10.0 5.1 61 3.4 SSE 7 11 4 6 1028.3 1028.4 0.0
21/02:30pm 12.2 9.8 5.1 62 3.3 SSW 7 11 4 6 1028.5 1028.6 0.0
21/02:00pm 12.5 10.4 5.9 64 3.1 SW 6 9 3 5 1028.5 1028.6 0.0
21/01:30pm 12.4 10.6 5.6 63 3.2 S 4 11 2 6 1028.6 1028.7 0.0
21/01:00pm 12.4 10.3 5.8 64 3.1 S 6 9 3 5 1028.7 1028.8 0.0
21/12:30pm 12.4 9.8 6.0 65 3.0 SSW 9 13 5 7 1029.1 1029.2 0.0
21/12:00pm 12.6 10.0 6.2 65 3.0 SSW 9 13 5 7 1029.3 1029.4 0.0
21/11:30am 12.4 10.3 6.5 67 2.8 SW 7 9 4 5 1029.5 1029.6 0.0
21/11:00am 12.5 10.4 6.8 68 2.7 SE 7 9 4 5 1029.4 1029.5 0.0
21/10:30am 12.2 10.8 7.3 72 2.4 S 4 9 2 5 1029.4 1029.5 0.0
21/10:00am 11.8 11.3 7.7 76 2.0 CALM 0 6 0 3 1029.3 1029.4 0.0
21/09:30am 11.5 11.2 8.5 82 1.5 CALM 0 7 0 4 1029.1 1029.2 0.0
21/09:00am 10.7 10.3 8.3 85 1.2 CALM 0 7 0 4 1028.8 1028.9 3.2
21/08:30am 10.3 9.4 7.9 85 1.2 SSW 2 6 1 3 1028.7 1028.8 3.2
21/08:00am 10.2 9.7 7.8 85 1.2 CALM 0 6 0 3 1028.4 1028.5 3.2
21/07:30am 10.4 10.0 8.2 86 1.1 CALM 0 6 0 3 1028.1 1028.2 3.2
21/07:00am 10.2 9.8 8.1 87 1.0 CALM 0 0 0 0 1028.1 1028.2 3.2

Other Formats:

Comma delimited format used in spreadsheet applications
http://www.bom.gov.au/fwo/IDV60801/IDV60801.94828.axf

JavaScript Object Notation format (JSON) in row-major order
http://www.bom.gov.au/fwo/IDV60801/IDV60801.94828.json